sensor_id;sensor_type;location;lat;lon;timestamp;pressure;altitude;pressure_sealevel;temperature;humidity
7480;BME280;3781;42.272;22.658;2024-01-15T00:02:10;93725.59;;;-5.37;100.00
7480;BME280;3781;42.272;22.658;2024-01-15T00:04:37;93835.00;;;-4.70;100.00
7480;BME280;3781;42.272;22.658;2024-01-15T00:07:10;93705.16;;;-5.52;100.00
7480;BME280;3781;42.272;22.658;2024-01-15T00:09:45;93745.59;;;-5.30;100.00
7480;BME280;3781;42.272;22.658;2024-01-15T00:12:12;93587.25;;;-6.34;100.00
7480;BME280;3781;42.272;22.658;2024-01-15T00:14:43;93627.88;;;-5.98;100.00
7480;BME280;3781;42.272;22.658;2024-01-15T00:17:13;93831.88;;;-4.75;100.00
7480;BME280;3781;42.272;22.658;2024-01-15T00:19:40;93689.00;;;-5.68;100.00
7480;BME280;3781;42.272;22.658;2024-01-15T00:22:14;93825.28;;;-4.79;100.00
7480;BME280;3781;42.272;22.658;2024-01-15T00:24:48;93510.72;;;-6.77;100.00
7480;BME280;3781;42.272;22.658;2024-01-15T00:27:22;93724.03;;;-5.19;100.00
7480;BME280;3781;42.272;22.658;2024-01-15T00:29:52;93811.16;;;-4.45;100.00
7480;BME280;3781;42.272;22.658;2024-01-15T00:32:20;93807.97;;;-4.49;100.00
7480;BME280;3781;42.272;22.658;2024-01-15T00:34:50;93822.56;;;-4.74;100.00
7480;BME280;3781;42.272;22.658;2024-01-15T00:37:27;93829.03;;;-5.09;100.00
7480;BME280;3781;42.272;22.658;2024-01-15T00:39:54;93832.50;;;-5.31;100.00
7480;BME280;3781;42.272;22.658;2024-01-15T00:42:24;93817.78;;;-5.22;100.00
7480;BME280;3781;42.272;22.658;2024-01-15T00:44:54;93816.78;;;-5.18;100.00
7480;BME280;3781;42.272;22.658;2024-01-15T00:47:20;93801.16;;;-4.87;100.00
7480;BME280;3781;42.272;22.658;2024-01-15T00:49:55;93773.13;;;-5.23;100.00
7480;BME280;3781;42.272;22.658;2024-01-15T00:52:30;93809.63;;;-4.88;100.00
7480;BME280;3781;42.272;22.658;2024-01-15T00:54:59;93571.00;;;-6.28;100.00
7480;BME280;3781;42.272;22.658;2024-01-15T00:57:29;93798.81;;;-4.92;100.00
7480;BME280;3781;42.272;22.658;2024-01-15T01:00:00;93530.63;;;-6.50;100.00
7480;BME280;3781;42.272;22.658;2024-01-15T01:02:27;93622.81;;;-5.98;100.00
7480;BME280;3781;42.272;22.658;2024-01-15T01:05:01;93711.69;;;-5.47;100.00
7480;BME280;3781;42.272;22.658;2024-01-15T01:07:38;93758.97;;;-5.07;100.00
7480;BME280;3781;42.272;22.658;2024-01-15T01:10:06;93777.00;;;-4.55;100.00
7480;BME280;3781;42.272;22.658;2024-01-15T01:12:33;93773.44;;;-4.51;100.00
7480;BME280;3781;42.272;22.658;2024-01-15T01:15:04;93602.25;;;-5.50;100.00
7480;BME280;3781;42.272;22.658;2024-01-15T01:17:31;93609.97;;;-5.53;100.00
7480;BME280;3781;42.272;22.658;2024-01-15T01:20:01;93612.13;;;-5.44;100.00
7480;BME280;3781;42.272;22.658;2024-01-15T01:22:33;93767.69;;;-4.36;100.00
7480;BME280;3781;42.272;22.658;2024-01-15T01:25:01;93499.69;;;-5.94;100.00
7480;BME280;3781;42.272;22.658;2024-01-15T01:27:33;93619.25;;;-5.15;100.00
7480;BME280;3781;42.272;22.658;2024-01-15T01:30:00;93750.44;;;-4.28;100.00
7480;BME280;3781;42.272;22.658;2024-01-15T01:32:29;93467.63;;;-6.33;100.00
7480;BME280;3781;42.272;22.658;2024-01-15T01:34:59;93710.13;;;-5.29;100.00
7480;BME280;3781;42.272;22.658;2024-01-15T01:37:26;93780.91;;;-4.87;100.00
7480;BME280;3781;42.272;22.658;2024-01-15T01:39:56;93710.00;;;-5.46;100.00
7480;BME280;3781;42.272;22.658;2024-01-15T01:42:30;93799.06;;;-5.18;100.00
7480;BME280;3781;42.272;22.658;2024-01-15T01:45:03;93653.94;;;-6.18;100.00
7480;BME280;3781;42.272;22.658;2024-01-15T01:47:35;93717.34;;;-5.82;100.00
7480;BME280;3781;42.272;22.658;2024-01-15T01:50:03;93771.31;;;-5.41;100.00
7480;BME280;3781;42.272;22.658;2024-01-15T01:52:34;93735.78;;;-5.58;100.00
7480;BME280;3781;42.272;22.658;2024-01-15T01:55:06;93465.69;;;-7.30;100.00
7480;BME280;3781;42.272;22.658;2024-01-15T01:57:37;93797.66;;;-5.67;100.00
7480;BME280;3781;42.272;22.658;2024-01-15T02:00:08;93464.97;;;-7.55;100.00
7480;BME280;3781;42.272;22.658;2024-01-15T02:02:41;93695.53;;;-6.04;100.00
7480;BME280;3781;42.272;22.658;2024-01-15T02:05:13;93649.78;;;-6.19;100.00
7480;BME280;3781;42.272;22.658;2024-01-15T02:07:41;93691.06;;;-5.98;100.00
7480;BME280;3781;42.272;22.658;2024-01-15T02:10:09;93589.84;;;-6.57;100.00
7480;BME280;3781;42.272;22.658;2024-01-15T02:12:44;93712.38;;;-5.63;100.00
7480;BME280;3781;42.272;22.658;2024-01-15T02:15:16;93672.53;;;-5.78;100.00
7480;BME280;3781;42.272;22.658;2024-01-15T02:17:59;93682.78;;;-5.41;100.00
7480;BME280;3781;42.272;22.658;2024-01-15T02:20:30;93684.63;;;-5.24;100.00
7480;BME280;3781;42.272;22.658;2024-01-15T02:23:11;93617.19;;;-5.64;100.00
7480;BME280;3781;42.272;22.658;2024-01-15T02:25:44;93565.91;;;-6.06;100.00
7480;BME280;3781;42.272;22.658;2024-01-15T02:28:13;93484.69;;;-6.58;100.00
7480;BME280;3781;42.272;22.658;2024-01-15T02:30:45;93585.81;;;-5.60;100.00
7480;BME280;3781;42.272;22.658;2024-01-15T02:33:12;93536.53;;;-5.70;100.00
7480;BME280;3781;42.272;22.658;2024-01-15T02:35:42;93573.25;;;-5.62;100.00
7480;BME280;3781;42.272;22.658;2024-01-15T02:38:10;93546.81;;;-5.93;100.00
7480;BME280;3781;42.272;22.658;2024-01-15T02:40:49;93639.31;;;-5.49;100.00
7480;BME280;3781;42.272;22.658;2024-01-15T02:43:16;93667.13;;;-5.29;100.00
7480;BME280;3781;42.272;22.658;2024-01-15T02:45:47;93543.19;;;-6.27;100.00
7480;BME280;3781;42.272;22.658;2024-01-15T02:48:20;93579.28;;;-6.04;100.00
7480;BME280;3781;42.272;22.658;2024-01-15T02:50:48;93486.06;;;-6.71;100.00
7480;BME280;3781;42.272;22.658;2024-01-15T02:53:19;93681.00;;;-5.39;100.00
7480;BME280;3781;42.272;22.658;2024-01-15T02:55:52;93561.00;;;-6.09;100.00
7480;BME280;3781;42.272;22.658;2024-01-15T02:58:19;93407.56;;;-7.05;100.00
7480;BME280;3781;42.272;22.658;2024-01-15T03:00:46;93617.94;;;-5.62;100.00
7480;BME280;3781;42.272;22.658;2024-01-15T03:03:16;93384.97;;;-7.08;100.00
7480;BME280;3781;42.272;22.658;2024-01-15T03:05:47;93628.03;;;-5.22;100.00
7480;BME280;3781;42.272;22.658;2024-01-15T03:08:13;93631.31;;;-5.20;100.00
7480;BME280;3781;42.272;22.658;2024-01-15T03:10:48;93633.88;;;-5.21;100.00
7480;BME280;3781;42.272;22.658;2024-01-15T03:13:16;93466.66;;;-6.29;100.00
7480;BME280;3781;42.272;22.658;2024-01-15T03:15:44;93561.00;;;-5.89;100.00
7480;BME280;3781;42.272;22.658;2024-01-15T03:18:13;93393.03;;;-7.00;100.00
7480;BME280;3781;42.272;22.658;2024-01-15T03:20:46;93641.81;;;-5.29;100.00
7480;BME280;3781;42.272;22.658;2024-01-15T03:23:22;93606.06;;;-5.60;100.00
7480;BME280;3781;42.272;22.658;2024-01-15T03:25:56;93633.59;;;-5.34;100.00
7480;BME280;3781;42.272;22.658;2024-01-15T03:28:30;93621.13;;;-5.39;100.00
7480;BME280;3781;42.272;22.658;2024-01-15T03:30:57;93293.13;;;-7.64;100.00
7480;BME280;3781;42.272;22.658;2024-01-15T03:33:26;93536.59;;;-6.10;100.00
7480;BME280;3781;42.272;22.658;2024-01-15T03:35:58;93598.63;;;-5.83;100.00
7480;BME280;3781;42.272;22.658;2024-01-15T03:38:28;93457.00;;;-6.59;100.00
7480;BME280;3781;42.272;22.658;2024-01-15T03:40:56;93311.06;;;-7.50;100.00
7480;BME280;3781;42.272;22.658;2024-01-15T03:43:22;93602.53;;;-5.76;100.00
7480;BME280;3781;42.272;22.658;2024-01-15T03:45:58;93319.72;;;-7.57;100.00
7480;BME280;3781;42.272;22.658;2024-01-15T03:48:25;93509.81;;;-6.55;100.00
7480;BME280;3781;42.272;22.658;2024-01-15T03:51:03;93537.22;;;-6.26;100.00
7480;BME280;3781;42.272;22.658;2024-01-15T03:53:32;93492.94;;;-6.54;100.00
7480;BME280;3781;42.272;22.658;2024-01-15T03:56:06;93543.03;;;-6.44;100.00
7480;BME280;3781;42.272;22.658;2024-01-15T03:58:39;93566.03;;;-6.09;100.00
7480;BME280;3781;42.272;22.658;2024-01-15T04:01:08;93436.22;;;-6.86;100.00
7480;BME280;3781;42.272;22.658;2024-01-15T04:03:41;93253.53;;;-7.83;100.00
7480;BME280;3781;42.272;22.658;2024-01-15T04:06:10;93566.38;;;-5.78;100.00
7480;BME280;3781;42.272;22.658;2024-01-15T04:08:37;93568.97;;;-5.80;100.00
7480;BME280;3781;42.272;22.658;2024-01-15T04:11:09;93570.19;;;-5.88;100.00
7480;BME280;3781;42.272;22.658;2024-01-15T04:13:35;93581.81;;;-5.84;100.00
7480;BME280;3781;42.272;22.658;2024-01-15T04:16:08;93386.03;;;-7.14;100.00
7480;BME280;3781;42.272;22.658;2024-01-15T04:18:35;93485.19;;;-6.70;100.00
7480;BME280;3781;42.272;22.658;2024-01-15T04:21:09;93435.31;;;-6.85;100.00
7480;BME280;3781;42.272;22.658;2024-01-15T04:23:36;93192.31;;;-8.05;100.00
7480;BME280;3781;42.272;22.658;2024-01-15T04:26:05;93222.00;;;-7.71;100.00
7480;BME280;3781;42.272;22.658;2024-01-15T04:28:34;93576.28;;;-5.54;100.00
7480;BME280;3781;42.272;22.658;2024-01-15T04:31:01;93331.59;;;-7.19;100.00
7480;BME280;3781;42.272;22.658;2024-01-15T04:33:28;93499.06;;;-5.99;100.00
7480;BME280;3781;42.272;22.658;2024-01-15T04:36:04;93572.25;;;-5.39;100.00
7480;BME280;3781;42.272;22.658;2024-01-15T04:38:31;93382.09;;;-6.79;100.00
7480;BME280;3781;42.272;22.658;2024-01-15T04:41:01;93383.34;;;-7.09;100.00
7480;BME280;3781;42.272;22.658;2024-01-15T04:43:28;93368.72;;;-7.01;100.00
7480;BME280;3781;42.272;22.658;2024-01-15T04:46:00;93498.97;;;-6.17;100.00
7480;BME280;3781;42.272;22.658;2024-01-15T04:48:28;93467.06;;;-6.39;100.00
7480;BME280;3781;42.272;22.658;2024-01-15T04:50:59;93573.94;;;-5.58;100.00
7480;BME280;3781;42.272;22.658;2024-01-15T04:53:26;93397.72;;;-6.91;100.00
7480;BME280;3781;42.272;22.658;2024-01-15T04:55:58;93219.13;;;-8.04;100.00
7480;BME280;3781;42.272;22.658;2024-01-15T04:58:28;93533.31;;;-5.92;100.00
7480;BME280;3781;42.272;22.658;2024-01-15T05:00:55;93462.84;;;-6.39;100.00
7480;BME280;3781;42.272;22.658;2024-01-15T05:03:26;93504.28;;;-6.23;100.00
7480;BME280;3781;42.272;22.658;2024-01-15T05:05:56;93551.19;;;-5.78;100.00
7480;BME280;3781;42.272;22.658;2024-01-15T05:08:27;93551.56;;;-5.67;100.00
7480;BME280;3781;42.272;22.658;2024-01-15T05:10:57;93346.56;;;-6.95;100.00
7480;BME280;3781;42.272;22.658;2024-01-15T05:13:24;93534.28;;;-5.76;100.00
7480;BME280;3781;42.272;22.658;2024-01-15T05:15:55;93253.69;;;-7.45;100.00
7480;BME280;3781;42.272;22.658;2024-01-15T05:18:23;93128.66;;;-8.28;100.00
7480;BME280;3781;42.272;22.658;2024-01-15T05:20:52;93518.31;;;-5.58;100.00
7480;BME280;3781;42.272;22.658;2024-01-15T05:23:23;93345.22;;;-6.63;100.00
7480;BME280;3781;42.272;22.658;2024-01-15T05:25:57;93334.13;;;-6.79;100.00
7480;BME280;3781;42.272;22.658;2024-01-15T05:28:23;93307.88;;;-6.75;100.00
7480;BME280;3781;42.272;22.658;2024-01-15T05:30:56;93386.50;;;-6.64;100.00
7480;BME280;3781;42.272;22.658;2024-01-15T05:33:23;93206.69;;;-7.87;100.00
7480;BME280;3781;42.272;22.658;2024-01-15T05:35:49;93489.41;;;-6.10;100.00
7480;BME280;3781;42.272;22.658;2024-01-15T05:38:30;93051.38;;;-8.67;100.00
7480;BME280;3781;42.272;22.658;2024-01-15T05:40:57;93475.66;;;-5.84;100.00
7480;BME280;3781;42.272;22.658;2024-01-15T05:43:23;93362.22;;;-6.48;100.00
7480;BME280;3781;42.272;22.658;2024-01-15T05:45:56;93501.44;;;-5.20;100.00
7480;BME280;3781;42.272;22.658;2024-01-15T05:48:23;93337.84;;;-6.29;100.00
7480;BME280;3781;42.272;22.658;2024-01-15T05:50:56;93358.19;;;-5.94;100.00
7480;BME280;3781;42.272;22.658;2024-01-15T05:53:26;93426.56;;;-5.80;100.00
7480;BME280;3781;42.272;22.658;2024-01-15T05:55:53;93321.66;;;-6.25;100.00
7480;BME280;3781;42.272;22.658;2024-01-15T05:58:21;93153.19;;;-7.14;100.00
7480;BME280;3781;42.272;22.658;2024-01-15T06:00:48;93380.59;;;-6.05;100.00
7480;BME280;3781;42.272;22.658;2024-01-15T06:03:21;93256.84;;;-6.63;100.00
7480;BME280;3781;42.272;22.658;2024-01-15T06:05:54;93480.19;;;-5.35;100.00
7480;BME280;3781;42.272;22.658;2024-01-15T06:08:21;93523.38;;;-5.21;100.00
7480;BME280;3781;42.272;22.658;2024-01-15T06:10:58;93502.59;;;-5.46;100.00
7480;BME280;3781;42.272;22.658;2024-01-15T06:13:27;93527.34;;;-5.34;100.00
7480;BME280;3781;42.272;22.658;2024-01-15T06:15:54;93367.06;;;-6.62;100.00
7480;BME280;3781;42.272;22.658;2024-01-15T06:18:27;93532.41;;;-5.34;100.00
7480;BME280;3781;42.272;22.658;2024-01-15T06:21:01;93538.22;;;-5.32;100.00
7480;BME280;3781;42.272;22.658;2024-01-15T06:23:27;93550.75;;;-5.29;100.00
7480;BME280;3781;42.272;22.658;2024-01-15T06:26:02;93474.91;;;-5.86;100.00
7480;BME280;3781;42.272;22.658;2024-01-15T06:28:42;93553.59;;;-5.37;100.00
7480;BME280;3781;42.272;22.658;2024-01-15T06:31:12;93510.25;;;-5.66;100.00
7480;BME280;3781;42.272;22.658;2024-01-15T06:33:38;93542.53;;;-5.53;100.00
7480;BME280;3781;42.272;22.658;2024-01-15T06:36:10;93512.13;;;-5.71;100.00
7480;BME280;3781;42.272;22.658;2024-01-15T06:38:38;93545.53;;;-5.45;100.00
7480;BME280;3781;42.272;22.658;2024-01-15T06:41:08;93442.44;;;-6.14;100.00
7480;BME280;3781;42.272;22.658;2024-01-15T06:43:39;93539.91;;;-5.32;100.00
7480;BME280;3781;42.272;22.658;2024-01-15T06:46:19;93447.03;;;-5.85;100.00
7480;BME280;3781;42.272;22.658;2024-01-15T06:48:49;93444.63;;;-5.69;100.00
7480;BME280;3781;42.272;22.658;2024-01-15T06:51:22;93496.09;;;-5.14;100.00
7480;BME280;3781;42.272;22.658;2024-01-15T06:53:51;93440.72;;;-5.39;100.00
7480;BME280;3781;42.272;22.658;2024-01-15T06:56:20;93324.03;;;-6.03;100.00
7480;BME280;3781;42.272;22.658;2024-01-15T06:58:47;93427.81;;;-5.33;100.00
7480;BME280;3781;42.272;22.658;2024-01-15T07:01:13;93363.72;;;-5.69;100.00
7480;BME280;3781;42.272;22.658;2024-01-15T07:03:41;93550.38;;;-4.48;100.00
7480;BME280;3781;42.272;22.658;2024-01-15T07:06:08;93296.91;;;-5.99;100.00
7480;BME280;3781;42.272;22.658;2024-01-15T07:08:34;93298.16;;;-5.72;100.00
7480;BME280;3781;42.272;22.658;2024-01-15T07:11:03;93482.13;;;-4.34;100.00
7480;BME280;3781;42.272;22.658;2024-01-15T07:13:32;93434.81;;;-4.51;100.00
7480;BME280;3781;42.272;22.658;2024-01-15T07:15:59;93538.31;;;-3.75;100.00
7480;BME280;3781;42.272;22.658;2024-01-15T07:18:26;93478.66;;;-3.99;100.00
7480;BME280;3781;42.272;22.658;2024-01-15T07:20:52;93358.34;;;-4.92;100.00
7480;BME280;3781;42.272;22.658;2024-01-15T07:23:19;93524.88;;;-3.77;100.00
7480;BME280;3781;42.272;22.658;2024-01-15T07:25:46;93536.13;;;-3.65;100.00
7480;BME280;3781;42.272;22.658;2024-01-15T07:28:13;93562.44;;;-3.51;100.00
7480;BME280;3781;42.272;22.658;2024-01-15T07:30:41;93317.78;;;-5.07;100.00
7480;BME280;3781;42.272;22.658;2024-01-15T07:33:08;93334.53;;;-4.88;100.00
7480;BME280;3781;42.272;22.658;2024-01-15T07:35:35;93378.28;;;-4.51;100.00
7480;BME280;3781;42.272;22.658;2024-01-15T07:38:02;93574.63;;;-3.25;100.00
7480;BME280;3781;42.272;22.658;2024-01-15T07:40:29;93295.22;;;-4.95;100.00
7480;BME280;3781;42.272;22.658;2024-01-15T07:42:56;93424.03;;;-4.22;100.00
7480;BME280;3781;42.272;22.658;2024-01-15T07:45:23;93320.91;;;-4.85;100.00
7480;BME280;3781;42.272;22.658;2024-01-15T07:47:51;93354.91;;;-4.74;100.00
7480;BME280;3781;42.272;22.658;2024-01-15T07:50:18;93563.88;;;-3.30;100.00
7480;BME280;3781;42.272;22.658;2024-01-15T07:52:45;93487.66;;;-3.94;100.00
7480;BME280;3781;42.272;22.658;2024-01-15T07:55:12;93296.91;;;-4.95;100.00
7480;BME280;3781;42.272;22.658;2024-01-15T07:57:39;93251.66;;;-5.01;100.00
7480;BME280;3781;42.272;22.658;2024-01-15T08:00:06;93618.22;;;-2.68;100.00
7480;BME280;3781;42.272;22.658;2024-01-15T08:02:34;93510.31;;;-3.41;100.00
7480;BME280;3781;42.272;22.658;2024-01-15T08:05:03;93539.84;;;-3.23;100.00
7480;BME280;3781;42.272;22.658;2024-01-15T08:07:30;93502.00;;;-3.60;100.00
7480;BME280;3781;42.272;22.658;2024-01-15T08:09:56;93624.44;;;-2.58;100.00
7480;BME280;3781;42.272;22.658;2024-01-15T08:12:23;93630.25;;;-2.72;100.00
7480;BME280;3781;42.272;22.658;2024-01-15T08:14:50;93627.19;;;-2.78;100.00
7480;BME280;3781;42.272;22.658;2024-01-15T08:17:17;93537.84;;;-3.66;100.00
7480;BME280;3781;42.272;22.658;2024-01-15T08:19:44;93646.03;;;-2.82;100.00
7480;BME280;3781;42.272;22.658;2024-01-15T08:22:13;93547.59;;;-3.26;100.00
7480;BME280;3781;42.272;22.658;2024-01-15T08:24:40;93523.69;;;-3.22;100.00
7480;BME280;3781;42.272;22.658;2024-01-15T08:27:06;93575.50;;;-2.77;100.00
7480;BME280;3781;42.272;22.658;2024-01-15T08:29:34;93631.00;;;-2.23;100.00
7480;BME280;3781;42.272;22.658;2024-01-15T08:32:01;93528.31;;;-2.66;100.00
7480;BME280;3781;42.272;22.658;2024-01-15T08:34:28;93568.44;;;-2.41;100.00
7480;BME280;3781;42.272;22.658;2024-01-15T08:36:54;93584.16;;;-2.19;100.00
7480;BME280;3781;42.272;22.658;2024-01-15T08:39:23;93623.66;;;-1.98;100.00
7480;BME280;3781;42.272;22.658;2024-01-15T08:41:49;93490.47;;;-2.56;100.00
7480;BME280;3781;42.272;22.658;2024-01-15T08:44:16;93459.97;;;-3.01;100.00
7480;BME280;3781;42.272;22.658;2024-01-15T08:46:43;93527.34;;;-2.34;100.00
7480;BME280;3781;42.272;22.658;2024-01-15T08:49:10;93452.44;;;-2.87;100.00
7480;BME280;3781;42.272;22.658;2024-01-15T08:51:37;93430.34;;;-3.17;100.00
7480;BME280;3781;42.272;22.658;2024-01-15T08:54:04;93625.66;;;-1.73;100.00
7480;BME280;3781;42.272;22.658;2024-01-15T08:56:35;93577.31;;;-2.03;100.00
7480;BME280;3781;42.272;22.658;2024-01-15T08:59:02;93596.44;;;-1.96;100.00
7480;BME280;3781;42.272;22.658;2024-01-15T09:01:29;93575.53;;;-1.87;100.00
7480;BME280;3781;42.272;22.658;2024-01-15T09:03:56;93516.75;;;-2.26;100.00
7480;BME280;3781;42.272;22.658;2024-01-15T09:06:23;93388.53;;;-2.95;100.00
7480;BME280;3781;42.272;22.658;2024-01-15T09:08:50;93661.19;;;-1.12;100.00
7480;BME280;3781;42.272;22.658;2024-01-15T09:11:17;93648.91;;;-1.06;100.00
7480;BME280;3781;42.272;22.658;2024-01-15T09:13:45;93649.53;;;-1.02;100.00
7480;BME280;3781;42.272;22.658;2024-01-15T09:16:12;93557.66;;;-1.41;100.00
7480;BME280;3781;42.272;22.658;2024-01-15T09:18:38;93584.59;;;-0.81;100.00
7480;BME280;3781;42.272;22.658;2024-01-15T09:21:05;93637.25;;;-0.39;100.00
7480;BME280;3781;42.272;22.658;2024-01-15T09:23:32;93410.00;;;-1.41;100.00
7480;BME280;3781;42.272;22.658;2024-01-15T09:25:59;93430.97;;;-0.97;100.00
7480;BME280;3781;42.272;22.658;2024-01-15T09:28:25;93444.16;;;-0.64;100.00
7480;BME280;3781;42.272;22.658;2024-01-15T09:30:53;93379.47;;;-0.76;100.00
7480;BME280;3781;42.272;22.658;2024-01-15T09:33:21;93493.53;;;0.14;100.00
7480;BME280;3781;42.272;22.658;2024-01-15T09:35:50;93477.41;;;0.51;100.00
7480;BME280;3781;42.272;22.658;2024-01-15T09:38:17;93393.44;;;0.46;99.71
7480;BME280;3781;42.272;22.658;2024-01-15T09:40:45;93260.88;;;0.07;94.23
7480;BME280;3781;42.272;22.658;2024-01-15T09:43:14;93626.38;;;2.48;90.81
7480;BME280;3781;42.272;22.658;2024-01-15T09:45:41;93622.41;;;2.44;89.72
7480;BME280;3781;42.272;22.658;2024-01-15T09:48:10;93584.81;;;2.21;88.51
7480;BME280;3781;42.272;22.658;2024-01-15T09:50:38;93388.81;;;1.00;90.83
7480;BME280;3781;42.272;22.658;2024-01-15T09:53:05;93540.16;;;2.01;90.96
7480;BME280;3781;42.272;22.658;2024-01-15T09:55:32;93502.56;;;2.02;91.65
7480;BME280;3781;42.272;22.658;2024-01-15T09:58:00;93577.75;;;2.70;90.94
7480;BME280;3781;42.272;22.658;2024-01-15T10:00:29;93557.25;;;2.70;90.71
7480;BME280;3781;42.272;22.658;2024-01-15T10:02:56;93563.13;;;2.94;90.04
7480;BME280;3781;42.272;22.658;2024-01-15T10:05:25;93511.56;;;2.53;89.85
7480;BME280;3781;42.272;22.658;2024-01-15T10:07:53;93570.13;;;2.92;89.64
7480;BME280;3781;42.272;22.658;2024-01-15T10:10:21;93564.88;;;3.05;88.80
7480;BME280;3781;42.272;22.658;2024-01-15T10:12:49;93410.84;;;1.96;88.83
7480;BME280;3781;42.272;22.658;2024-01-15T10:15:16;93481.44;;;2.11;88.27
7480;BME280;3781;42.272;22.658;2024-01-15T10:17:43;93568.34;;;2.71;89.61
7480;BME280;3781;42.272;22.658;2024-01-15T10:20:11;93505.63;;;2.53;89.16
7480;BME280;3781;42.272;22.658;2024-01-15T10:22:41;93538.66;;;2.90;87.32
7480;BME280;3781;42.272;22.658;2024-01-15T10:25:10;93518.13;;;2.90;87.62
7480;BME280;3781;42.272;22.658;2024-01-15T10:27:37;93307.72;;;1.72;84.48
7480;BME280;3781;42.272;22.658;2024-01-15T10:30:05;93512.75;;;3.60;83.72
7480;BME280;3781;42.272;22.658;2024-01-15T10:32:32;93542.38;;;4.38;80.03
7480;BME280;3781;42.272;22.658;2024-01-15T10:34:59;93530.31;;;4.91;76.10
7480;BME280;3781;42.272;22.658;2024-01-15T10:37:26;93541.25;;;5.14;74.77
7480;BME280;3781;42.272;22.658;2024-01-15T10:39:54;93502.09;;;4.39;76.87
7480;BME280;3781;42.272;22.658;2024-01-15T10:42:21;93520.97;;;4.70;76.24
7480;BME280;3781;42.272;22.658;2024-01-15T10:44:48;93498.38;;;4.52;76.40
7480;BME280;3781;42.272;22.658;2024-01-15T10:47:15;93516.56;;;4.61;76.69
7480;BME280;3781;42.272;22.658;2024-01-15T10:49:42;93516.94;;;4.77;75.95
7480;BME280;3781;42.272;22.658;2024-01-15T10:52:09;93414.63;;;4.29;74.23
7480;BME280;3781;42.272;22.658;2024-01-15T10:54:37;93383.00;;;4.08;73.98
7480;BME280;3781;42.272;22.658;2024-01-15T10:57:07;93496.34;;;5.27;72.35
7480;BME280;3781;42.272;22.658;2024-01-15T10:59:34;93493.31;;;6.21;69.61
7480;BME280;3781;42.272;22.658;2024-01-15T11:02:01;93493.56;;;6.08;66.49
7480;BME280;3781;42.272;22.658;2024-01-15T11:04:28;93368.22;;;6.07;65.10
7480;BME280;3781;42.272;22.658;2024-01-15T11:06:58;93402.63;;;6.45;62.52
7480;BME280;3781;42.272;22.658;2024-01-15T11:09:25;93481.09;;;7.44;62.05
7480;BME280;3781;42.272;22.658;2024-01-15T11:11:54;93472.56;;;8.77;58.62
7480;BME280;3781;42.272;22.658;2024-01-15T11:14:35;93465.81;;;11.62;50.83
7480;BME280;3781;42.272;22.658;2024-01-15T11:17:02;93473.84;;;13.94;42.65
7480;BME280;3781;42.272;22.658;2024-01-15T11:19:36;93412.63;;;14.95;38.07
7480;BME280;3781;42.272;22.658;2024-01-15T11:22:07;93442.44;;;15.29;35.39
7480;BME280;3781;42.272;22.658;2024-01-15T11:24:35;93346.44;;;14.67;35.26
7480;BME280;3781;42.272;22.658;2024-01-15T11:27:03;93457.94;;;16.39;32.98
7480;BME280;3781;42.272;22.658;2024-01-15T11:29:31;93386.44;;;16.65;31.46
7480;BME280;3781;42.272;22.658;2024-01-15T11:32:05;93451.03;;;17.64;30.94
7480;BME280;3781;42.272;22.658;2024-01-15T11:34:52;93445.25;;;18.95;29.42
7480;BME280;3781;42.272;22.658;2024-01-15T11:37:22;93404.75;;;19.88;27.04
7480;BME280;3781;42.272;22.658;2024-01-15T11:39:53;93424.63;;;20.86;25.63
7480;BME280;3781;42.272;22.658;2024-01-15T11:42:22;93427.06;;;21.41;24.24
7480;BME280;3781;42.272;22.658;2024-01-15T11:44:49;93390.56;;;20.85;25.06
7480;BME280;3781;42.272;22.658;2024-01-15T11:47:35;93411.66;;;21.15;24.36
7480;BME280;3781;42.272;22.658;2024-01-15T11:50:07;93379.25;;;20.37;24.98
7480;BME280;3781;42.272;22.658;2024-01-15T11:52:36;93401.00;;;20.14;25.15
7480;BME280;3781;42.272;22.658;2024-01-15T11:55:16;93359.16;;;19.70;25.22
7480;BME280;3781;42.272;22.658;2024-01-15T11:57:50;93406.75;;;18.32;27.05
7480;BME280;3781;42.272;22.658;2024-01-15T12:00:17;93370.38;;;14.98;30.48
7480;BME280;3781;42.272;22.658;2024-01-15T12:02:49;93389.84;;;14.05;32.56
7480;BME280;3781;42.272;22.658;2024-01-15T12:05:18;93342.56;;;12.02;35.21
7480;BME280;3781;42.272;22.658;2024-01-15T12:07:48;93383.69;;;10.82;37.37
7480;BME280;3781;42.272;22.658;2024-01-15T12:10:16;93344.69;;;10.11;39.11
7480;BME280;3781;42.272;22.658;2024-01-15T12:12:53;93322.25;;;9.70;39.50
7480;BME280;3781;42.272;22.658;2024-01-15T12:15:25;93311.97;;;9.44;40.48
7480;BME280;3781;42.272;22.658;2024-01-15T12:17:54;93363.41;;;10.05;40.27
7480;BME280;3781;42.272;22.658;2024-01-15T12:20:23;93363.19;;;11.50;38.04
7480;BME280;3781;42.272;22.658;2024-01-15T12:22:50;93290.28;;;11.74;37.46
7480;BME280;3781;42.272;22.658;2024-01-15T12:25:21;93328.63;;;11.64;37.01
7480;BME280;3781;42.272;22.658;2024-01-15T12:27:51;93361.28;;;11.36;38.02
7480;BME280;3781;42.272;22.658;2024-01-15T12:30:21;93321.63;;;10.40;39.24
7480;BME280;3781;42.272;22.658;2024-01-15T12:32:48;93356.28;;;10.63;39.95
7480;BME280;3781;42.272;22.658;2024-01-15T12:35:20;93342.41;;;10.24;41.11
7480;BME280;3781;42.272;22.658;2024-01-15T12:37:47;93310.56;;;9.58;41.30
7480;BME280;3781;42.272;22.658;2024-01-15T12:40:19;93325.19;;;9.17;42.70
7480;BME280;3781;42.272;22.658;2024-01-15T12:42:46;93320.09;;;8.66;43.82
7480;BME280;3781;42.272;22.658;2024-01-15T12:45:16;93321.34;;;8.28;45.18
7480;BME280;3781;42.272;22.658;2024-01-15T12:47:44;93304.22;;;7.92;46.17
7480;BME280;3781;42.272;22.658;2024-01-15T12:50:14;93327.22;;;7.77;47.24
7480;BME280;3781;42.272;22.658;2024-01-15T12:52:42;93326.78;;;7.46;48.66
7480;BME280;3781;42.272;22.658;2024-01-15T12:55:12;93327.66;;;7.37;48.82
7480;BME280;3781;42.272;22.658;2024-01-15T12:57:50;93316.97;;;7.32;49.21
7480;BME280;3781;42.272;22.658;2024-01-15T13:00:20;93322.03;;;7.24;49.69
7480;BME280;3781;42.272;22.658;2024-01-15T13:02:46;93254.03;;;6.71;49.98
7480;BME280;3781;42.272;22.658;2024-01-15T13:05:16;93306.06;;;6.94;51.17
7480;BME280;3781;42.272;22.658;2024-01-15T13:07:47;93194.06;;;6.15;51.08
7480;BME280;3781;42.272;22.658;2024-01-15T13:10:15;93123.66;;;5.50;51.81
7480;BME280;3781;42.272;22.658;2024-01-15T13:12:42;93100.47;;;5.50;51.69
7480;BME280;3781;42.272;22.658;2024-01-15T13:15:12;93220.41;;;6.08;52.63
7480;BME280;3781;42.272;22.658;2024-01-15T13:17:39;93275.97;;;6.21;52.88